createdAt,value
2023-01-29T00:03:22.654Z,0
2023-01-29T00:08:22.642Z,0
2023-01-29T00:13:22.661Z,0
2023-01-29T00:18:22.649Z,0
2023-01-29T00:23:22.658Z,0
2023-01-29T00:28:22.736Z,0
2023-01-29T00:33:22.677Z,0
2023-01-29T00:38:22.631Z,0
2023-01-29T00:43:22.651Z,0
2023-01-29T00:48:22.746Z,0
2023-01-29T00:53:22.653Z,0
2023-01-29T00:58:22.665Z,0
2023-01-29T01:03:22.821Z,0
2023-01-29T01:08:22.674Z,0
2023-01-29T01:13:22.734Z,0
2023-01-29T01:18:41.275Z,0
2023-01-29T01:23:23.179Z,0
2023-01-29T01:28:22.792Z,0
2023-01-29T01:33:22.659Z,0
2023-01-29T01:38:22.715Z,0
2023-01-29T01:43:22.682Z,0
2023-01-29T01:48:22.686Z,0
2023-01-29T01:53:22.670Z,0
2023-01-29T01:58:22.652Z,0
2023-01-29T02:03:22.675Z,0
2023-01-29T02:08:22.664Z,0
2023-01-29T02:13:22.647Z,0
2023-01-29T02:18:22.658Z,0
2023-01-29T02:23:22.656Z,0
2023-01-29T02:28:22.697Z,0
2023-01-29T02:33:22.675Z,0
2023-01-29T02:38:22.751Z,0
2023-01-29T02:43:22.669Z,0
2023-01-29T02:48:22.673Z,0
2023-01-29T02:53:22.680Z,0
2023-01-29T02:58:22.716Z,0
2023-01-29T03:08:22.677Z,0
2023-01-29T03:13:22.673Z,0
2023-01-29T03:18:22.753Z,0
2023-01-29T03:23:22.671Z,0
2023-01-29T03:28:22.669Z,0
2023-01-29T03:33:22.708Z,0
2023-01-29T03:38:22.661Z,0
2023-01-29T03:43:22.666Z,0
2023-01-29T03:48:22.682Z,0
2023-01-29T03:53:22.687Z,0
2023-01-29T03:58:22.670Z,0
2023-01-29T04:03:22.671Z,0
2023-01-29T04:08:23.173Z,0
2023-01-29T04:13:22.697Z,0
2023-01-29T04:18:22.678Z,0
2023-01-29T04:23:22.688Z,0
2023-01-29T04:28:22.732Z,0
2023-01-29T04:33:22.766Z,0
2023-01-29T04:38:22.713Z,0
2023-01-29T04:43:22.694Z,0
2023-01-29T04:48:22.698Z,0
2023-01-29T04:53:22.715Z,0
2023-01-29T04:58:22.932Z,0
2023-01-29T05:03:22.690Z,0
2023-01-29T05:08:23.705Z,0
2023-01-29T05:13:22.678Z,0
2023-01-29T05:18:22.676Z,0
2023-01-29T05:23:22.693Z,0
2023-01-29T05:28:22.715Z,0
2023-01-29T05:33:22.713Z,0
2023-01-29T05:38:22.674Z,0
2023-01-29T05:43:22.692Z,0
2023-01-29T05:48:22.701Z,0
2023-01-29T05:53:22.697Z,0
2023-01-29T05:58:22.715Z,0
2023-01-29T06:03:22.716Z,0
2023-01-29T06:08:22.800Z,256
2023-01-29T06:13:23.680Z,0
2023-01-29T06:18:22.683Z,0
2023-01-29T06:23:22.679Z,0
2023-01-29T06:28:22.708Z,0
2023-01-29T06:33:22.721Z,0
2023-01-29T06:38:22.699Z,257
2023-01-29T06:43:22.702Z,256
2023-01-29T06:48:22.705Z,260
2023-01-29T06:53:22.703Z,261
2023-01-29T06:58:22.689Z,265
2023-01-29T07:03:23.197Z,274
2023-01-29T07:08:22.766Z,280
2023-01-29T07:13:22.708Z,276
2023-01-29T07:18:22.715Z,281
2023-01-29T07:23:22.748Z,294
2023-01-29T07:28:22.773Z,293
2023-01-29T07:33:22.736Z,311
2023-01-29T07:38:22.853Z,336
2023-01-29T07:43:22.707Z,348
2023-01-29T07:48:22.742Z,356
2023-01-29T07:53:22.709Z,377
2023-01-29T07:58:22.723Z,387
2023-01-29T08:03:22.733Z,350
2023-01-29T08:08:22.720Z,347
2023-01-29T08:13:22.714Z,370
2023-01-29T08:18:22.741Z,382
2023-01-29T08:23:22.748Z,413
2023-01-29T08:28:22.773Z,390
2023-01-29T08:33:29.573Z,367
2023-01-29T08:38:22.713Z,361
2023-01-29T08:43:22.737Z,379
2023-01-29T08:48:22.728Z,397
2023-01-29T08:53:22.727Z,428
2023-01-29T08:58:22.964Z,465
2023-01-29T09:03:22.792Z,516
2023-01-29T09:08:22.751Z,538
2023-01-29T09:13:23.016Z,527
2023-01-29T09:18:22.931Z,598
2023-01-29T09:23:22.755Z,557
2023-01-29T09:28:22.861Z,562
2023-01-29T09:33:22.722Z,667
2023-01-29T09:38:22.735Z,765
2023-01-29T09:43:22.753Z,753
2023-01-29T09:48:22.737Z,738
2023-01-29T09:53:22.760Z,644
2023-01-29T09:58:22.730Z,636
2023-01-29T10:03:22.722Z,605
2023-01-29T10:08:22.736Z,652
2023-01-29T10:13:22.789Z,613
2023-01-29T10:18:22.730Z,913
2023-01-29T10:23:22.744Z,777
2023-01-29T10:28:22.755Z,874
2023-01-29T10:33:22.757Z,1073
2023-01-29T10:38:22.827Z,989
2023-01-29T10:43:22.777Z,958
2023-01-29T10:48:22.826Z,876
2023-01-29T10:53:22.727Z,1027
2023-01-29T10:58:22.786Z,989
2023-01-29T11:03:28.217Z,798
2023-01-29T11:08:22.750Z,711
2023-01-29T11:13:22.822Z,743
2023-01-29T11:18:22.805Z,762
2023-01-29T11:23:22.744Z,742
2023-01-29T11:28:22.789Z,837
2023-01-29T11:33:22.794Z,888
2023-01-29T11:38:22.750Z,845
2023-01-29T11:43:22.763Z,819
2023-01-29T11:48:22.778Z,808
2023-01-29T11:53:22.756Z,905
2023-01-29T11:58:22.783Z,909
2023-01-29T12:03:24.977Z,706
2023-01-29T12:08:22.777Z,696
2023-01-29T12:13:22.775Z,747
2023-01-29T12:18:22.774Z,712
2023-01-29T12:23:22.800Z,758
2023-01-29T12:28:23.234Z,754
2023-01-29T12:33:22.830Z,741
2023-01-29T12:38:22.794Z,772
2023-01-29T12:43:22.767Z,713
2023-01-29T12:48:22.838Z,714
2023-01-29T12:53:22.803Z,778
2023-01-29T12:58:22.797Z,752
2023-01-29T13:03:22.809Z,725
2023-01-29T13:08:22.800Z,694
2023-01-29T13:13:22.846Z,731
2023-01-29T13:18:22.833Z,741
2023-01-29T13:23:22.794Z,749
2023-01-29T13:28:23.061Z,659
2023-01-29T13:33:22.801Z,662
2023-01-29T13:38:22.826Z,600
2023-01-29T13:43:22.803Z,600
2023-01-29T13:48:22.786Z,548
2023-01-29T13:53:22.829Z,533
2023-01-29T13:58:22.791Z,546
2023-01-29T14:03:22.781Z,538
2023-01-29T14:08:22.827Z,549
2023-01-29T14:13:23.047Z,518
2023-01-29T14:18:22.804Z,506
2023-01-29T14:23:22.823Z,497
2023-01-29T14:28:22.841Z,499
2023-01-29T14:33:22.818Z,472
2023-01-29T14:38:22.831Z,467
2023-01-29T14:43:22.813Z,481
2023-01-29T14:48:22.923Z,499
2023-01-29T14:53:22.886Z,461
2023-01-29T14:58:22.852Z,435
2023-01-29T15:03:22.889Z,413
2023-01-29T15:08:22.814Z,396
2023-01-29T15:13:22.806Z,370
2023-01-29T15:18:22.942Z,352
2023-01-29T15:23:22.804Z,339
2023-01-29T15:28:22.861Z,325
2023-01-29T15:33:22.879Z,320
2023-01-29T15:38:22.814Z,310
2023-01-29T15:43:22.804Z,300
2023-01-29T15:48:22.821Z,284
2023-01-29T15:53:22.805Z,273
2023-01-29T15:58:25.828Z,267
2023-01-29T16:03:22.859Z,265
2023-01-29T16:08:22.842Z,263
2023-01-29T16:13:22.847Z,262
2023-01-29T16:18:22.797Z,256
2023-01-29T16:23:22.852Z,0
2023-01-29T16:28:22.838Z,0
2023-01-29T16:33:22.818Z,0
2023-01-29T16:38:22.845Z,0
2023-01-29T16:43:26.141Z,0
2023-01-29T16:48:22.870Z,0
2023-01-29T16:53:22.850Z,0
2023-01-29T16:58:22.811Z,0
2023-01-29T17:03:22.812Z,0
2023-01-29T17:08:22.848Z,0
2023-01-29T17:13:22.891Z,0
2023-01-29T17:18:22.852Z,0
2023-01-29T17:23:22.847Z,0
2023-01-29T17:28:22.845Z,0
2023-01-29T17:33:22.839Z,0
2023-01-29T17:38:26.532Z,0
2023-01-29T17:43:22.835Z,0
2023-01-29T17:48:22.863Z,0
2023-01-29T17:53:24.791Z,0
2023-01-29T17:58:22.877Z,0
2023-01-29T18:03:22.848Z,0
2023-01-29T18:13:25.756Z,0
2023-01-29T18:18:22.836Z,0
2023-01-29T18:23:22.836Z,0
2023-01-29T18:28:22.891Z,0
2023-01-29T18:33:22.883Z,0
2023-01-29T18:38:22.944Z,0
2023-01-29T18:43:23.016Z,0
2023-01-29T18:48:22.811Z,0
2023-01-29T18:53:22.873Z,0
2023-01-29T18:58:28.693Z,0
2023-01-29T19:03:22.836Z,0
2023-01-29T19:08:24.066Z,0
2023-01-29T19:13:22.884Z,0
2023-01-29T19:18:22.897Z,0
2023-01-29T19:23:22.864Z,0
2023-01-29T19:28:22.858Z,0
2023-01-29T19:33:22.843Z,0
2023-01-29T19:38:22.886Z,0
2023-01-29T19:43:22.889Z,0
2023-01-29T19:48:22.864Z,0
2023-01-29T19:53:22.891Z,0
2023-01-29T19:58:22.848Z,0
2023-01-29T20:03:22.870Z,0
2023-01-29T20:08:22.861Z,0
2023-01-29T20:13:22.881Z,0
2023-01-29T20:18:22.837Z,0
2023-01-29T20:23:36.453Z,0
2023-01-29T20:28:22.920Z,0
2023-01-29T20:33:22.855Z,0
2023-01-29T20:38:22.871Z,0
2023-01-29T20:43:22.888Z,0
2023-01-29T20:48:22.854Z,0
2023-01-29T20:53:22.907Z,0
2023-01-29T20:58:22.935Z,0
2023-01-29T21:03:22.844Z,0
2023-01-29T21:08:22.912Z,0
2023-01-29T21:13:22.942Z,0
2023-01-29T21:18:22.848Z,0
2023-01-29T21:23:22.909Z,0
2023-01-29T21:28:22.853Z,0
2023-01-29T21:33:22.901Z,0
2023-01-29T21:38:22.875Z,0
2023-01-29T21:43:22.881Z,0
2023-01-29T21:48:22.871Z,0
2023-01-29T21:53:22.885Z,0
2023-01-29T21:58:22.869Z,0
2023-01-29T22:03:22.929Z,0
2023-01-29T22:08:22.880Z,0
2023-01-29T22:13:23.036Z,0
2023-01-29T22:18:22.871Z,0
2023-01-29T22:23:23.003Z,0
2023-01-29T22:28:22.865Z,0
2023-01-29T22:33:22.866Z,0
2023-01-29T22:38:22.909Z,0
2023-01-29T22:43:22.902Z,0
2023-01-29T22:48:22.889Z,0
2023-01-29T22:53:22.903Z,0
2023-01-29T22:58:22.938Z,0
2023-01-29T23:03:22.899Z,0
2023-01-29T23:08:22.894Z,0
2023-01-29T23:13:22.971Z,0
2023-01-29T23:18:23.221Z,0
2023-01-29T23:23:22.893Z,0
2023-01-29T23:28:22.886Z,0
2023-01-29T23:33:22.899Z,0
2023-01-29T23:38:22.889Z,0
2023-01-29T23:43:22.910Z,0
2023-01-29T23:48:22.895Z,0
2023-01-29T23:53:22.909Z,0
2023-01-29T23:58:22.931Z,0
